Flight Track Log - Related Links

Times and Time Zones

All times are in EDT time to prevent confusion due to time zone crossing. See the TAM3719 flight status page for this flight to view local times or setup timezone preferences in your user account.

Time Position Orientation Groundspeed Altitude Reporting Facility
EDT Latitude Longitude Course Direction KTS MPH feet Rate Location/Type
Mon 04:30:44 AM -15.8630 -47.9130 90° East 110 127  Level FlightAware ADS-B
Mon 04:31:02 AM -15.8620 -47.9000 85° East 136 157 7,167 Level FlightAware ADS-B
Mon 04:31:20 AM -15.8610 -47.8860 86° East 158 182 4,300 8,053 Climbing FlightAware ADS-B
Mon 04:31:40 AM -15.8610 -47.8710 90° East 147 169 5,100 2,000 Climbing FlightAware ADS-B
Mon 04:31:59 AM -15.8600 -47.8580 85° East 154 177 5,600 1,050 Climbing FlightAware ADS-B
Mon 04:32:20 AM -15.8670 -47.8440 117° Southeast 149 171 5,800 732 Climbing FlightAware ADS-B
Mon 04:32:40 AM -15.8860 -47.8410 171° South 215 247 6,100 818 Climbing FlightAware ADS-B
Mon 04:33:04 AM -15.9130 -47.8440 186° South 253 291 6,400 1,067 Climbing FlightAware ADS-B
Mon 04:33:25 AM -15.9380 -47.8480 189° South 281 323 6,900 1,902 Climbing FlightAware ADS-B
Mon 04:33:45 AM -15.9650 -47.8510 186° South 291 335 7,700 2,651 Climbing FlightAware ADS-B
Mon 04:34:08 AM -15.9960 -47.8540 185° South 293 337 8,800 3,000 Climbing FlightAware ADS-B
Mon 04:34:29 AM -16.0250 -47.8570 186° South 295 339 9,900 2,333 Climbing FlightAware ADS-B
Mon 04:35:02 AM -16.0690 -47.8610 185° South 317 365 10,900 1,853 Climbing FlightAware ADS-B
Mon 04:35:37 AM -16.1260 -47.8670 186° South 346 398 12,000 1,970 Climbing FlightAware ADS-B
Mon 04:36:09 AM -16.1770 -47.8720 185° South 359 413 13,100 2,314 Climbing FlightAware ADS-B
Mon 04:36:47 AM -16.2400 -47.8780 185° South 360 414 14,700 2,500 Climbing FlightAware ADS-B
Mon 04:37:21 AM -16.2990 -47.8840 186° South 365 420 16,100 2,029 Climbing FlightAware ADS-B
Mon 04:37:55 AM -16.3510 -47.8890 185° South 373 429 17,000 1,565 Climbing FlightAware ADS-B
Mon 04:38:30 AM -16.4170 -47.8950 185° South 386 444 17,900 1,714 Climbing FlightAware ADS-B
Mon 04:39:05 AM -16.4790 -47.9010 185° South 391 450 19,000 1,944 Climbing FlightAware ADS-B
Mon 04:39:41 AM -16.5480 -47.9080 186° South 396 456 20,200 1,816 Climbing FlightAware ADS-B
Mon 04:40:21 AM -16.6190 -47.9150 185° South 402 463 21,300 1,229 Climbing FlightAware ADS-B
Mon 04:41:04 AM -16.6880 -47.9220 186° South 400 460 21,900 450 Climbing FlightAware ADS-B
Mon 04:41:41 AM -16.7460 -47.9270 185° South 400 460 21,900 1,259 Level FlightAware ADS-B
Mon 04:42:25 AM -16.8330 -47.9350 185° South 400 460 23,600 1,275 Climbing FlightAware ADS-B
Mon 04:43:01 AM -16.8890 -47.9410 186° South 400 460 23,600  Level FlightAware ADS-B
Mon 04:43:37 AM -16.9450 -47.9460 185° South 400 460 23,600  Level FlightAware ADS-B
Mon 04:44:13 AM -17.0020 -47.9510 185° South 400 460 23,600  Level FlightAware ADS-B
Mon 04:44:52 AM -17.0630 -47.9560 184° South 400 460 23,600 3,699 Level FlightAware ADS-B
Mon 04:45:26 AM -17.2190 -47.8690 152° Southeast 455 524 28,100 3,750 Climbing FlightAware ADS-B
Mon 04:46:04 AM -17.2870 -47.8600 173° South 455 524 28,100 1,292 Level FlightAware ADS-B
Mon 04:46:31 AM -17.3580 -47.8500 172° South 460 529 29,500 1,477 Climbing FlightAware ADS-B
Mon 04:47:09 AM -17.4300 -47.8390 172° South 462 532 29,700 1,054 Climbing FlightAware ADS-B
Mon 04:47:45 AM -17.5190 -47.8270 173° South 469 540 30,800 1,667 Climbing FlightAware ADS-B
Mon 04:48:21 AM -17.5960 -47.8160 172° South 464 534 31,700 1,371 Climbing FlightAware ADS-B
Mon 04:48:55 AM -17.6690 -47.8060 173° South 464 534 32,400 1,286 Climbing FlightAware ADS-B
Mon 04:49:31 AM -17.7450 -47.7950 172° South 459 528 33,200 1,352 Climbing FlightAware ADS-B
Mon 04:50:06 AM -17.8190 -47.7850 173° South 458 527 34,000 1,183 Climbing FlightAware ADS-B
Mon 04:50:42 AM -17.8950 -47.7740 172° South 458 527 34,600 857 Climbing FlightAware ADS-B
Mon 04:51:16 AM -17.9660 -47.7640 172° South 461 531 35,000 882 Climbing FlightAware ADS-B
Mon 04:51:50 AM -18.0400 -47.7530 172° South 462 532 35,600 833 Climbing FlightAware ADS-B
Mon 04:52:28 AM -18.1190 -47.7420 172° South 464 534 36,000 343 Climbing FlightAware ADS-B
Mon 04:53:00 AM -18.1890 -47.7320 172° South 463 533 36,000  Level FlightAware ADS-B
Mon 04:53:36 AM -18.2650 -47.7210 172° South 462 532 36,000  Level FlightAware ADS-B
Mon 04:54:12 AM -18.3410 -47.7100 172° South 460 529 36,000  Level FlightAware ADS-B
Mon 04:54:48 AM -18.4160 -47.7000 173° South 460 529 36,000  Level FlightAware ADS-B
Mon 04:55:16 AM -18.4760 -47.6910 172° South 461 531 36,000  Level FlightAware ADS-B
Mon 04:55:56 AM -18.5590 -47.6950 183° South 445 512 36,000  Level FlightAware ADS-B
Mon 04:56:32 AM -18.6340 -47.7050 187° South 446 513 36,000  Level FlightAware ADS-B
Mon 04:57:08 AM -18.7070 -47.7150 187° South 444 511 36,000  Level FlightAware ADS-B
Mon 04:57:40 AM -18.7720 -47.7230 187° South 444 511 36,000  Level FlightAware ADS-B
Mon 04:58:16 AM -18.8460 -47.7330 187° South 444 511 36,000  Level FlightAware ADS-B
Mon 04:58:50 AM -18.9160 -47.7430 188° South 445 512 36,000  Level FlightAware ADS-B
Mon 04:59:27 AM -18.9910 -47.7530 187° South 445 512 36,000  Level FlightAware ADS-B
Mon 05:00:01 AM -19.0620 -47.7630 188° South 444 511 36,000  Level FlightAware ADS-B
Mon 05:00:37 AM -19.1340 -47.7720 187° South 443 510 36,000  Level FlightAware ADS-B
Mon 05:01:13 AM -19.2080 -47.7820 187° South 441 507 36,000  Level FlightAware ADS-B
Mon 05:01:45 AM -19.2730 -47.7910 187° South 440 506 36,000  Level FlightAware ADS-B
Mon 05:02:23 AM -19.3500 -47.8020 188° South 440 506 36,000  Level FlightAware ADS-B
Mon 05:02:55 AM -19.4150 -47.8100 187° South 441 507 36,000  Level FlightAware ADS-B
Mon 05:03:31 AM -19.4870 -47.8200 187° South 442 509 36,000  Level FlightAware ADS-B
Mon 05:04:04 AM -19.5540 -47.8290 187° South 442 509 36,000  Level FlightAware ADS-B
Mon 05:04:41 AM -19.6300 -47.8390 187° South 443 510 36,000  Level FlightAware ADS-B
Mon 05:05:17 AM -19.7020 -47.8490 187° South 442 509 36,000  Level FlightAware ADS-B
Mon 05:05:53 AM -19.7770 -47.8590 187° South 441 507 36,000  Level FlightAware ADS-B
Mon 05:06:25 AM -19.8410 -47.8680 188° South 439 505 36,000  Level FlightAware ADS-B
Mon 05:07:01 AM -19.9150 -47.8780 187° South 438 504 36,000  Level FlightAware ADS-B
Mon 05:07:37 AM -19.9870 -47.8880 187° South 436 502 36,000  Level FlightAware ADS-B
Mon 05:08:13 AM -20.0610 -47.8980 187° South 437 503 36,000  Level FlightAware ADS-B
Mon 05:08:45 AM -20.1240 -47.9070 188° South 437 503 36,000  Level FlightAware ADS-B
Mon 05:09:21 AM -20.1950 -47.9160 187° South 438 504 36,000  Level FlightAware ADS-B
Mon 05:09:52 AM -20.2580 -47.9250 188° South 439 505 36,000  Level FlightAware ADS-B
Mon 05:10:29 AM -20.3340 -47.9350 187° South 441 507 36,000  Level FlightAware ADS-B
Mon 05:11:05 AM -20.4090 -47.9450 187° South 441 507 36,000  Level FlightAware ADS-B
Mon 05:11:37 AM -20.4730 -47.9540 188° South 441 507 36,000  Level FlightAware ADS-B
Mon 05:12:25 AM -20.5700 -47.9670 187° South 440 506 36,000  Level FlightAware ADS-B
Mon 05:12:55 AM -20.6300 -47.9760 188° South 440 506 36,000  Level FlightAware ADS-B
Mon 05:13:33 AM -20.7080 -47.9860 187° South 439 505 36,000  Level FlightAware ADS-B
Mon 05:14:09 AM -20.7800 -47.9960 187° South 439 505 36,000  Level FlightAware ADS-B
Mon 05:14:41 AM -20.8460 -48.0050 187° South 438 504 36,000  Level FlightAware ADS-B
Mon 05:15:17 AM -20.9170 -48.0150 187° South 437 503 36,000  Level FlightAware ADS-B
Mon 05:15:53 AM -20.9910 -48.0250 187° South 437 503 36,000  Level FlightAware ADS-B
Mon 05:16:27 AM -21.0590 -48.0350 188° South 438 504 36,000  Level FlightAware ADS-B
Mon 05:17:03 AM -21.1310 -48.0450 187° South 437 503 36,000  Level FlightAware ADS-B
Mon 05:17:37 AM -21.1990 -48.0540 187° South 437 503 36,000  Level FlightAware ADS-B
Mon 05:18:13 AM -21.2730 -48.0640 187° South 438 504 36,000  Level FlightAware ADS-B
Mon 05:18:49 AM -21.3460 -48.0740 187° South 439 505 36,000  Level FlightAware ADS-B
Mon 05:19:25 AM -21.4180 -48.0840 187° South 438 504 36,000  Level FlightAware ADS-B
Mon 05:19:57 AM -21.4830 -48.0930 187° South 439 505 36,000  Level FlightAware ADS-B
Mon 05:20:33 AM -21.5560 -48.1030 187° South 439 505 36,000  Level FlightAware ADS-B
Mon 05:21:09 AM -21.6270 -48.1130 187° South 440 506 36,000  Level FlightAware ADS-B
Mon 05:21:45 AM -21.7010 -48.1240 188° South 441 507 36,000  Level FlightAware ADS-B
Mon 05:22:17 AM -21.7660 -48.1320 187° South 443 510 36,000  Level FlightAware ADS-B
Mon 05:22:53 AM -21.8420 -48.1230 174° South 482 555 36,000 83 Level FlightAware ADS-B
Mon 05:23:29 AM -21.9170 -48.0840 154° Southeast 493 567 36,100 -583 Climbing FlightAware ADS-B
Mon 05:24:05 AM -21.9890 -48.0460 154° Southeast 495 570 35,300 -1,941 Descending FlightAware ADS-B
Mon 05:24:37 AM -22.0570 -48.0100 154° Southeast 491 565 33,900 -2,364 Descending FlightAware ADS-B
Mon 05:25:11 AM -22.1230 -47.9750 154° Southeast 480 552 32,700 -2,167 Descending FlightAware ADS-B
Mon 05:25:49 AM -22.2000 -47.9340 154° Southeast 465 535 31,300 -2,027 Descending FlightAware ADS-B
Mon 05:26:25 AM -22.2670 -47.8980 154° Southeast 454 522 30,200 -1,941 Descending FlightAware ADS-B
Mon 05:26:57 AM -22.3240 -47.8680 154° Southeast 447 514 29,100 -2,029 Descending FlightAware ADS-B
Mon 05:27:33 AM -22.3930 -47.8310 154° Southeast 436 502 27,900 -2,000 Descending FlightAware ADS-B
Mon 05:28:09 AM -22.4580 -47.7960 154° Southeast 427 491 26,700 -1,941 Descending FlightAware ADS-B
Mon 05:28:41 AM -22.5140 -47.7660 154° Southeast 420 483 25,700 -1,935 Descending FlightAware ADS-B
Mon 05:29:11 AM -22.5660 -47.7390 154° Southeast 412 474 24,700 -1,917 Descending FlightAware ADS-B
Mon 05:29:53 AM -22.6380 -47.7000 153° Southeast 400 460 23,400 -1,784 Descending FlightAware ADS-B
Mon 05:30:25 AM -22.6870 -47.6690 150° Southeast 397 457 22,500 -1,816 Descending FlightAware ADS-B
Mon 05:31:09 AM -22.7480 -47.6120 139° Southeast 389 448 21,100 -1,846 Descending FlightAware ADS-B
Mon 05:31:43 AM -22.7960 -47.5680 140° Southeast 382 440 20,100 -1,775 Descending FlightAware ADS-B
Mon 05:32:20 AM -22.8430 -47.5240 139° Southeast 373 429 19,000 -1,826 Descending FlightAware ADS-B
Mon 05:32:52 AM -22.8840 -47.4860 140° Southeast 367 422 18,000 -1,750 Descending FlightAware ADS-B
Mon 05:33:32 AM -22.9340 -47.4390 139° Southeast 359 413 16,900 -1,739 Descending FlightAware ADS-B
Mon 05:34:01 AM -22.9710 -47.4050 140° Southeast 349 402 16,000 -1,754 Descending FlightAware ADS-B
Mon 05:34:37 AM -23.0150 -47.3640 139° Southeast 342 394 15,000 -1,680 Descending FlightAware ADS-B
Mon 05:35:16 AM -23.0630 -47.3200 140° Southeast 341 392 13,900 -1,739 Descending FlightAware ADS-B
Mon 05:35:46 AM -23.0990 -47.2870 140° Southeast 326 375 13,000 -1,662 Descending FlightAware ADS-B
Mon 05:36:21 AM -23.1390 -47.2490 139° Southeast 308 354 12,100 -1,360 Descending FlightAware ADS-B
Mon 05:37:01 AM -23.1820 -47.2090 139° Southeast 298 343 11,300 -1,114 Descending FlightAware ADS-B
Mon 05:37:31 AM -23.2140 -47.1790 139° Southeast 302 348 10,800 -923 Descending FlightAware ADS-B
Mon 05:38:06 AM -23.2510 -47.1450 140° Southeast 298 343 10,300 -900 Descending FlightAware ADS-B
Mon 05:38:31 AM -23.2750 -47.1220 139° Southeast 298 343 9,900 -792 Descending FlightAware ADS-B
Mon 05:38:59 AM -23.3080 -47.0910 139° Southeast 299 344 9,600 -545 Descending FlightAware ADS-B
Mon 05:39:15 AM -23.3240 -47.0760 139° Southeast 297 342 9,500 -375 Descending FlightAware ADS-B
Mon 05:39:31 AM -23.3410 -47.0610 141° Southeast 296 341 9,400 -500 Descending FlightAware ADS-B
Mon 05:39:51 AM -23.3620 -47.0400 137° Southeast 296 341 9,200 -545 Descending FlightAware ADS-B
Mon 05:40:15 AM -23.3870 -47.0180 141° Southeast 294 338 9,000 -333 Descending FlightAware ADS-B
Mon 05:40:27 AM -23.3990 -47.0060 137° Southeast 293 337 9,000 -474 Level FlightAware ADS-B
Mon 05:40:53 AM -23.4260 -46.9810 140° Southeast 293 337 8,700 -522 Descending FlightAware ADS-B
Mon 05:41:13 AM -23.4460 -46.9620 139° Southeast 294 338 8,600 -450 Descending FlightAware ADS-B
Mon 05:41:33 AM -23.4670 -46.9420 139° Southeast 293 337 8,400 -600 Descending FlightAware ADS-B
Mon 05:41:53 AM -23.4880 -46.9230 140° Southeast 292 336 8,200 -450 Descending FlightAware ADS-B
Mon 05:42:13 AM -23.5080 -46.9030 137° Southeast 291 335 8,100 -333 Descending FlightAware ADS-B
Mon 05:42:29 AM -23.5240 -46.8880 139° Southeast 291 335 8,000 -167 Descending FlightAware ADS-B
Mon 05:42:49 AM -23.5440 -46.8690 139° Southeast 285 328 8,000  Level FlightAware ADS-B
Mon 05:43:01 AM -23.5550 -46.8580 137° Southeast 272 313 8,000  Level FlightAware ADS-B
Mon 05:43:25 AM -23.5780 -46.8360 139° Southeast 259 298 8,000  Level FlightAware ADS-B
Mon 05:43:35 AM -23.5860 -46.8280 137° Southeast 257 296 8,000  Level FlightAware ADS-B
Mon 05:44:01 AM -23.6090 -46.8050 138° Southeast 254 292 8,000  Level FlightAware ADS-B
Mon 05:44:21 AM -23.6260 -46.7890 139° Southeast 256 295 8,000  Level FlightAware ADS-B
Mon 05:44:43 AM -23.6460 -46.7690 138° Southeast 256 295 8,000  Level FlightAware ADS-B
Mon 05:45:03 AM -23.6630 -46.7520 138° Southeast 257 296 8,000  Level FlightAware ADS-B
Mon 05:45:23 AM -23.6810 -46.7340 138° Southeast 256 295 8,000  Level FlightAware ADS-B
Mon 05:45:43 AM -23.6990 -46.7170 139° Southeast 254 292 8,000 -167 Level FlightAware ADS-B
Mon 05:45:59 AM -23.7130 -46.7020 136° Southeast 252 290 7,900 -833 Descending FlightAware ADS-B
Mon 05:46:19 AM -23.7300 -46.6860 139° Southeast 252 290 7,500 -1,263 Descending FlightAware ADS-B
Mon 05:46:37 AM -23.7460 -46.6700 138° Southeast 253 291 7,100 -1,535 Descending FlightAware ADS-B
Mon 05:47:02 AM -23.7660 -46.6510 139° Southeast 252 290 6,400 -1,737 Descending FlightAware ADS-B
Mon 05:47:15 AM -23.7790 -46.6380 138° Southeast 254 292 6,000 -1,778 Descending FlightAware ADS-B
Mon 05:47:29 AM -23.7900 -46.6240 131° Southeast 254 292 5,600 -1,364 Descending FlightAware ADS-B
Mon 05:47:37 AM -23.7920 -46.6150 104° East 252 290 5,500 -1,091 Descending FlightAware ADS-B
Mon 05:47:40 AM -23.7920 -46.6120 90° East 251 289 5,400 -621 Descending FlightAware ADS-B
Mon 05:48:06 AM -23.7870 -46.5930 74° East 238 274 5,200 -585 Descending FlightAware ADS-B
Mon 05:48:21 AM -23.7760 -46.5770 53° Northeast 225 259 5,000 -522 Descending FlightAware ADS-B
Mon 05:48:29 AM -23.7690 -46.5730 28° Northeast 214 246 5,000 -375 Level FlightAware ADS-B
Mon 05:48:37 AM -23.7610 -46.5720 North 204 235 4,900 -353 Descending FlightAware ADS-B
Mon 05:49:03 AM -23.7350 -46.5820 341° North 160 184 4,800 -480 Descending FlightAware ADS-B
Mon 05:49:27 AM -23.7220 -46.5910 328° Northwest 141 162 4,500 -735 Descending FlightAware ADS-B
Mon 05:49:52 AM -23.7070 -46.6010 329° Northwest 137 158 4,200 -750 Descending FlightAware ADS-B
Mon 05:50:07 AM -23.6990 -46.6060 330° Northwest 134 154 4,000 -667 Descending FlightAware ADS-B
Mon 05:50:28 AM -23.6900 -46.6130 325° Northwest 137 158 3,800 -706 Descending FlightAware ADS-B
Mon 05:50:41 AM -23.6810 -46.6190 329° Northwest 135 155 3,600 -750 Descending FlightAware ADS-B
Mon 05:51:08 AM -23.6670 -46.6290 327° Northwest 134 154 3,300 -766 Descending FlightAware ADS-B
Mon 05:51:28 AM -23.6560 -46.6360 330° Northwest 136 157 3,000 -732 Descending FlightAware ADS-B
Mon 05:51:49 AM -23.6450 -46.6440 326° Northwest 133 153 2,800 -462 Descending FlightAware ADS-B
Mon 05:52:07 AM -23.6400 -46.6480 324° Northwest 136 157 2,700 -333 Descending FlightAware ADS-B
Mon 05:53:43 AM -23.6150 -46.6460 61° Northeast 138 159 -1,688 Descending FlightAware ADS-B
Mon 05:53:55 AM -23.6250 -46.6590 230° Southwest 138 159  Level FlightAware ADS-B

Login

Don't have an account? Register now (free) for customized features, flight alerts, and more!